createdAt,value
2019-03-08T00:00:22.328Z,1.02
2019-03-08T00:04:26.871Z,1.20
2019-03-08T00:08:31.442Z,1.12
2019-03-08T00:12:36.368Z,1.32
2019-03-08T00:16:40.954Z,1.27
2019-03-08T00:20:45.496Z,1.35
2019-03-08T00:24:50.058Z,1.50
2019-03-08T00:28:55.190Z,1.45
2019-03-08T00:32:59.851Z,1.50
2019-03-08T00:37:04.410Z,1.10
2019-03-08T00:41:09.064Z,1.60
2019-03-08T00:45:13.647Z,1.32
2019-03-08T00:49:18.195Z,1.35
2019-03-08T00:53:22.811Z,1.50
2019-03-08T00:57:27.363Z,1.60
2019-03-08T01:01:32.047Z,1.50
2019-03-08T01:05:36.603Z,1.60
2019-03-08T01:09:41.153Z,1.67
2019-03-08T01:13:45.652Z,1.65
2019-03-08T01:17:50.352Z,1.85
2019-03-08T01:21:54.913Z,1.47
2019-03-08T01:25:59.449Z,1.97
2019-03-08T01:30:04.717Z,1.70
2019-03-08T01:34:09.237Z,1.85
2019-03-08T01:38:13.790Z,1.87
2019-03-08T01:42:18.350Z,2.05
2019-03-08T01:46:22.975Z,2.30
2019-03-08T01:50:27.561Z,2.10
2019-03-08T01:54:32.190Z,2.22
2019-03-08T01:58:36.740Z,2.15
2019-03-08T02:02:41.308Z,2.50
2019-03-08T02:06:45.863Z,2.35
2019-03-08T02:10:50.403Z,2.22
2019-03-08T02:14:55.118Z,1.90
2019-03-08T02:18:59.707Z,2.17
2019-03-08T02:23:04.292Z,2.20
2019-03-08T02:27:08.841Z,2.20
2019-03-08T02:31:13.402Z,2.27
2019-03-08T02:35:19.222Z,2.40
2019-03-08T02:39:23.909Z,2.75
2019-03-08T02:43:28.914Z,1.80
2019-03-08T02:47:33.529Z,2.20
2019-03-08T02:51:38.228Z,1.87
2019-03-08T02:55:42.804Z,1.95
2019-03-08T02:59:47.333Z,1.20
2019-03-08T03:03:51.880Z,1.20
2019-03-08T03:07:56.444Z,0.72
2019-03-08T03:12:01.008Z,1.00
2019-03-08T03:16:05.588Z,1.10
2019-03-08T03:20:10.259Z,1.30
2019-03-08T03:24:14.847Z,1.20
2019-03-08T03:28:19.390Z,1.20
2019-03-08T03:32:23.970Z,1.12
2019-03-08T03:36:28.524Z,1.50
2019-03-08T03:40:33.236Z,1.50
2019-03-08T03:44:37.808Z,1.40
2019-03-08T03:48:42.356Z,1.60
2019-03-08T03:52:46.945Z,2.00
2019-03-08T03:56:53.478Z,1.50
2019-03-08T04:00:57.681Z,1.52
2019-03-08T04:05:02.239Z,1.70
2019-03-08T04:09:13.523Z,1.52
2019-03-08T04:13:18.174Z,1.53
2019-03-08T04:17:22.793Z,2.02
2019-03-08T04:21:27.313Z,1.62
2019-03-08T04:25:31.892Z,1.90
2019-03-08T04:29:36.437Z,2.10
2019-03-08T04:33:41.009Z,1.90
2019-03-08T04:37:45.539Z,1.80
2019-03-08T04:41:50.096Z,2.23
2019-03-08T04:45:54.691Z,2.15
2019-03-08T04:49:59.247Z,1.92
2019-03-08T04:54:03.806Z,1.77
2019-03-08T04:58:08.348Z,1.62
2019-03-08T05:02:12.905Z,2.13
2019-03-08T05:06:17.668Z,1.80
2019-03-08T05:10:22.349Z,1.50
2019-03-08T05:14:26.929Z,1.80
2019-03-08T05:18:32.952Z,1.82
2019-03-08T05:22:37.754Z,2.07
2019-03-08T05:26:42.328Z,2.10
2019-03-08T05:30:46.893Z,2.20
2019-03-08T05:34:51.625Z,2.00
2019-03-08T05:38:56.212Z,1.77
2019-03-08T05:43:00.768Z,1.85
2019-03-08T05:47:05.385Z,1.75
2019-03-08T05:51:09.963Z,1.92
2019-03-08T05:55:14.591Z,2.00
2019-03-08T05:59:19.172Z,2.02
2019-03-08T06:03:23.838Z,2.62
2019-03-08T06:07:28.385Z,2.35
2019-03-08T06:11:33.043Z,2.50
2019-03-08T06:15:37.572Z,2.20
2019-03-08T06:19:42.169Z,2.60
2019-03-08T06:23:46.745Z,2.50
2019-03-08T06:27:51.384Z,2.65
2019-03-08T06:31:56.029Z,3.00
2019-03-08T06:36:00.654Z,3.17
2019-03-08T06:40:05.696Z,2.95
2019-03-08T06:44:10.315Z,2.70
2019-03-08T06:48:15.221Z,2.25
2019-03-08T06:52:19.841Z,2.33
2019-03-08T06:56:24.522Z,2.35
2019-03-08T07:00:38.794Z,2.47
2019-03-08T07:04:43.425Z,2.22
2019-03-08T07:08:48.369Z,2.20
2019-03-08T07:13:02.784Z,2.03
2019-03-08T07:17:02.224Z,2.37
2019-03-08T07:21:15.653Z,2.60
2019-03-08T07:25:39.009Z,2.85
2019-03-08T07:30:08.674Z,2.67
2019-03-08T07:34:50.407Z,3.75
2019-03-08T07:39:12.852Z,3.95
2019-03-08T07:43:30.295Z,4.28
2019-03-08T07:47:40.896Z,4.35
2019-03-08T07:52:19.601Z,4.87
2019-03-08T07:56:34.451Z,4.33
2019-03-08T08:00:49.536Z,3.95
2019-03-08T08:05:02.488Z,4.60
2019-03-08T08:09:26.592Z,4.70
2019-03-08T08:13:54.931Z,4.80
2019-03-08T08:18:06.363Z,5.42
2019-03-08T08:22:29.202Z,4.87
2019-03-08T08:26:51.588Z,4.50
2019-03-08T08:31:33.517Z,4.87
2019-03-08T08:35:59.659Z,5.20
2019-03-08T08:40:27.341Z,3.85
2019-03-08T08:44:56.971Z,4.72
2019-03-08T08:49:19.286Z,4.60
2019-03-08T08:53:54.816Z,5.15
2019-03-08T08:58:21.408Z,5.05
2019-03-08T09:02:50.470Z,4.75
2019-03-08T09:07:07.895Z,4.80
2019-03-08T09:11:45.866Z,4.90
2019-03-08T09:16:03.007Z,4.65
2019-03-08T09:20:30.007Z,4.87
2019-03-08T09:24:53.580Z,6.12
2019-03-08T09:29:20.254Z,4.60
2019-03-08T09:33:35.536Z,2.73
2019-03-08T09:37:47.496Z,2.27
2019-03-08T09:42:07.706Z,3.35
2019-03-08T09:46:34.214Z,2.60
2019-03-08T09:51:00.964Z,3.40
2019-03-08T09:55:13.963Z,3.02
2019-03-08T09:59:28.748Z,3.80
2019-03-08T10:04:04.764Z,4.03
2019-03-08T10:08:37.458Z,3.70
2019-03-08T10:13:08.093Z,3.83
2019-03-08T10:17:37.456Z,3.02
2019-03-08T10:22:06.814Z,3.30
2019-03-08T10:26:32.280Z,3.98
2019-03-08T10:31:08.187Z,3.50
2019-03-08T10:35:30.650Z,3.40
2019-03-08T10:39:52.811Z,3.47
2019-03-08T10:44:25.413Z,4.08
2019-03-08T10:48:54.711Z,3.98
2019-03-08T10:53:10.662Z,3.20
2019-03-08T10:57:46.092Z,3.97
2019-03-08T11:02:06.817Z,4.12
2019-03-08T11:06:29.193Z,3.60
2019-03-08T11:10:50.090Z,3.30
2019-03-08T11:15:25.957Z,3.12
2019-03-08T11:19:48.392Z,3.62
2019-03-08T11:24:19.069Z,3.83
2019-03-08T11:28:32.897Z,3.27
2019-03-08T11:32:59.865Z,3.47
2019-03-08T11:37:18.482Z,2.95
2019-03-08T11:41:33.749Z,3.40
2019-03-08T11:45:48.167Z,3.83
2019-03-08T11:50:24.105Z,3.47
2019-03-08T11:54:47.004Z,3.70
2019-03-08T11:59:13.343Z,3.05
2019-03-08T12:03:41.945Z,3.60
2019-03-08T12:08:05.441Z,3.67
2019-03-08T12:12:27.986Z,3.30
2019-03-08T12:16:49.296Z,3.50
2019-03-08T12:21:13.762Z,3.20
2019-03-08T12:25:40.947Z,2.37
2019-03-08T12:30:06.836Z,2.77
2019-03-08T12:34:29.307Z,2.70
2019-03-08T12:38:42.206Z,2.72
2019-03-08T12:43:08.268Z,2.27
2019-03-08T12:47:21.450Z,2.90
2019-03-08T12:51:30.630Z,3.40
2019-03-08T12:55:56.973Z,2.90
2019-03-08T13:00:26.353Z,3.10
2019-03-08T13:04:49.846Z,3.00
2019-03-08T13:09:18.087Z,3.05
2019-03-08T13:13:22.687Z,2.65
2019-03-08T13:17:27.326Z,3.42
2019-03-08T13:21:31.920Z,3.10
2019-03-08T13:25:36.524Z,3.40
2019-03-08T13:29:41.158Z,3.20
2019-03-08T13:33:46.292Z,3.57
2019-03-08T13:37:50.915Z,3.52
2019-03-08T13:41:55.549Z,2.80
2019-03-08T13:46:00.160Z,3.37
2019-03-08T13:50:05.375Z,3.05
2019-03-08T13:54:09.994Z,3.10
2019-03-08T13:58:14.608Z,3.13
2019-03-08T14:02:19.256Z,2.77
2019-03-08T14:06:23.810Z,3.20
2019-03-08T14:10:28.453Z,3.30
2019-03-08T14:14:33.102Z,3.33
2019-03-08T14:18:37.755Z,3.70
2019-03-08T14:22:42.408Z,3.72
2019-03-08T14:26:47.142Z,3.60
2019-03-08T14:30:58.308Z,3.42
2019-03-08T14:35:03.257Z,3.20
2019-03-08T14:39:08.853Z,2.85
2019-03-08T14:43:22.485Z,2.43
2019-03-08T14:47:45.976Z,3.37
2019-03-08T14:51:50.556Z,5.28
2019-03-08T14:55:58.761Z,3.20
2019-03-08T15:00:01.368Z,3.30
2019-03-08T15:04:05.976Z,4.12
2019-03-08T15:08:13.703Z,3.65
2019-03-08T15:12:16.986Z,3.60
2019-03-08T15:16:21.619Z,3.40
2019-03-08T15:20:26.312Z,3.20
2019-03-08T15:24:38.061Z,3.20
2019-03-08T15:28:37.124Z,3.52
2019-03-08T15:32:41.941Z,3.60
2019-03-08T15:36:46.514Z,3.27
2019-03-08T15:40:51.122Z,3.10
2019-03-08T15:44:55.699Z,3.45
2019-03-08T15:49:00.248Z,3.55
2019-03-08T15:53:04.888Z,3.12
2019-03-08T15:57:09.479Z,2.77
2019-03-08T16:01:14.065Z,2.58
2019-03-08T16:05:18.757Z,2.10
2019-03-08T16:09:23.294Z,2.20
2019-03-08T16:13:27.993Z,1.55
2019-03-08T16:17:32.717Z,1.62
2019-03-08T16:21:37.372Z,1.67
2019-03-08T16:25:47.536Z,2.00
2019-03-08T16:29:48.229Z,2.33
2019-03-08T16:33:54.649Z,2.87
2019-03-08T16:38:20.252Z,3.00
2019-03-08T16:42:32.892Z,2.50
2019-03-08T16:47:02.546Z,2.90
2019-03-08T16:51:30.322Z,2.70
2019-03-08T16:55:52.397Z,2.77
2019-03-08T17:00:08.641Z,2.62
2019-03-08T17:04:47.793Z,3.42
2019-03-08T17:09:09.953Z,2.77
2019-03-08T17:13:45.916Z,2.90
2019-03-08T17:18:18.532Z,2.95
2019-03-08T17:22:35.623Z,2.67
2019-03-08T17:27:01.987Z,5.08
2019-03-08T17:31:26.338Z,4.25
2019-03-08T17:35:53.384Z,2.93
2019-03-08T17:40:27.966Z,5.20
2019-03-08T17:44:54.385Z,2.80
2019-03-08T17:49:23.689Z,3.02
2019-03-08T17:53:47.181Z,2.95
2019-03-08T17:58:09.402Z,2.55
2019-03-08T18:02:35.633Z,2.52
2019-03-08T18:07:02.193Z,2.40
2019-03-08T18:11:19.021Z,3.00
2019-03-08T18:15:57.757Z,2.25
2019-03-08T18:20:24.418Z,4.17
2019-03-08T18:24:50.041Z,3.67
2019-03-08T18:29:06.761Z,5.03
2019-03-08T18:34:24.526Z,23.30
2019-03-08T18:38:47.000Z,9.23
2019-03-08T18:43:13.454Z,6.80
2019-03-08T18:47:46.293Z,2.97
2019-03-08T18:52:12.486Z,3.27
2019-03-08T18:56:33.677Z,3.05
2019-03-08T19:00:58.176Z,3.08
2019-03-08T19:05:17.764Z,3.60
2019-03-08T19:09:42.855Z,3.40
2019-03-08T19:14:18.461Z,3.67
2019-03-08T19:18:49.174Z,2.90
2019-03-08T19:23:12.747Z,3.17
2019-03-08T19:27:39.277Z,3.08
2019-03-08T19:32:11.837Z,3.07
2019-03-08T19:36:26.666Z,2.77
2019-03-08T19:40:57.725Z,2.72
2019-03-08T19:45:36.301Z,3.20
2019-03-08T19:49:59.801Z,3.00
2019-03-08T19:54:15.652Z,2.80
2019-03-08T19:58:39.145Z,2.72
2019-03-08T20:03:07.088Z,2.80
2019-03-08T20:07:48.820Z,3.00
2019-03-08T20:12:27.712Z,3.15
2019-03-08T20:16:51.633Z,3.33
2019-03-08T20:21:17.671Z,3.30
2019-03-08T20:25:39.885Z,3.80
2019-03-08T20:30:15.481Z,4.50
2019-03-08T20:34:29.337Z,4.60
2019-03-08T20:38:48.186Z,4.73
2019-03-08T20:43:00.801Z,4.93
2019-03-08T20:47:08.982Z,5.50
2019-03-08T20:51:13.549Z,5.78
2019-03-08T20:55:18.121Z,5.87
2019-03-08T20:59:24.848Z,6.10
2019-03-08T21:03:28.937Z,6.28
2019-03-08T21:07:33.682Z,6.65
2019-03-08T21:11:38.242Z,6.22
2019-03-08T21:15:42.861Z,5.12
2019-03-08T21:19:47.425Z,4.90
2019-03-08T21:23:52.068Z,4.85
2019-03-08T21:27:56.945Z,5.33
2019-03-08T21:32:01.512Z,4.20
2019-03-08T21:36:06.175Z,4.10
2019-03-08T21:40:10.924Z,3.62
2019-03-08T21:44:15.445Z,3.50
2019-03-08T21:48:20.013Z,2.83
2019-03-08T21:52:24.592Z,2.20
2019-03-08T21:56:29.164Z,2.05
2019-03-08T22:00:33.724Z,1.80
2019-03-08T22:04:42.470Z,1.92
2019-03-08T22:09:05.950Z,1.80
2019-03-08T22:13:10.509Z,1.70
2019-03-08T22:17:15.125Z,2.00
2019-03-08T22:21:19.891Z,2.30
2019-03-08T22:25:24.944Z,2.63
2019-03-08T22:29:29.500Z,3.73
2019-03-08T22:33:34.075Z,4.05
2019-03-08T22:37:38.656Z,4.50
2019-03-08T22:41:43.469Z,5.10
2019-03-08T22:45:48.036Z,5.15
2019-03-08T22:49:52.617Z,5.97
2019-03-08T22:53:57.163Z,5.72
2019-03-08T22:58:01.747Z,5.45
2019-03-08T23:02:10.523Z,5.83
2019-03-08T23:06:15.116Z,5.35
2019-03-08T23:10:19.676Z,5.80
2019-03-08T23:14:24.272Z,5.75
2019-03-08T23:18:28.872Z,5.75
2019-03-08T23:22:33.794Z,5.85
2019-03-08T23:27:02.958Z,5.42
2019-03-08T23:31:27.340Z,5.33
2019-03-08T23:35:31.937Z,5.33
2019-03-08T23:39:36.513Z,5.08
2019-03-08T23:43:41.032Z,5.20
2019-03-08T23:47:45.622Z,4.70
2019-03-08T23:51:50.184Z,5.37
2019-03-08T23:55:54.745Z,5.35
2019-03-08T23:59:59.529Z,4.72
